sensor_id;sensor_type;location;lat;lon;timestamp;P1;durP1;ratioP1;P2;durP2;ratioP2
10260;SDS011;5175;42.606;23.388;2022-11-10T00:00:45;44.67;;;35.20;;
10260;SDS011;5175;42.606;23.388;2022-11-10T00:03:12;46.93;;;36.23;;
10260;SDS011;5175;42.606;23.388;2022-11-10T00:05:39;45.80;;;35.23;;
10260;SDS011;5175;42.606;23.388;2022-11-10T00:08:07;43.13;;;34.43;;
10260;SDS011;5175;42.606;23.388;2022-11-10T00:10:36;46.03;;;36.03;;
10260;SDS011;5175;42.606;23.388;2022-11-10T00:13:22;44.40;;;35.10;;
10260;SDS011;5175;42.606;23.388;2022-11-10T00:15:50;42.17;;;34.00;;
10260;SDS011;5175;42.606;23.388;2022-11-10T00:18:35;40.87;;;34.03;;
10260;SDS011;5175;42.606;23.388;2022-11-10T00:21:03;42.07;;;33.53;;
10260;SDS011;5175;42.606;23.388;2022-11-10T00:23:31;42.33;;;33.87;;
10260;SDS011;5175;42.606;23.388;2022-11-10T00:25:58;41.50;;;33.73;;
10260;SDS011;5175;42.606;23.388;2022-11-10T00:28:27;43.83;;;34.63;;
10260;SDS011;5175;42.606;23.388;2022-11-10T00:30:55;41.97;;;33.17;;
10260;SDS011;5175;42.606;23.388;2022-11-10T00:33:22;43.97;;;34.10;;
10260;SDS011;5175;42.606;23.388;2022-11-10T00:35:49;41.97;;;33.40;;
10260;SDS011;5175;42.606;23.388;2022-11-10T00:38:16;39.23;;;32.40;;
10260;SDS011;5175;42.606;23.388;2022-11-10T00:40:42;41.70;;;32.80;;
10260;SDS011;5175;42.606;23.388;2022-11-10T00:43:09;39.60;;;32.60;;
10260;SDS011;5175;42.606;23.388;2022-11-10T00:45:42;37.10;;;31.33;;
10260;SDS011;5175;42.606;23.388;2022-11-10T00:48:09;39.37;;;31.63;;
10260;SDS011;5175;42.606;23.388;2022-11-10T00:50:36;39.17;;;33.13;;
10260;SDS011;5175;42.606;23.388;2022-11-10T00:53:02;36.80;;;31.57;;
10260;SDS011;5175;42.606;23.388;2022-11-10T00:55:29;39.10;;;33.00;;
10260;SDS011;5175;42.606;23.388;2022-11-10T00:57:56;39.40;;;32.97;;
10260;SDS011;5175;42.606;23.388;2022-11-10T01:00:22;37.60;;;31.47;;
10260;SDS011;5175;42.606;23.388;2022-11-10T01:02:51;38.23;;;32.20;;
10260;SDS011;5175;42.606;23.388;2022-11-10T01:05:17;41.27;;;32.77;;
10260;SDS011;5175;42.606;23.388;2022-11-10T01:07:44;40.20;;;31.33;;
10260;SDS011;5175;42.606;23.388;2022-11-10T01:10:11;39.30;;;31.77;;
10260;SDS011;5175;42.606;23.388;2022-11-10T01:12:37;40.63;;;31.17;;
10260;SDS011;5175;42.606;23.388;2022-11-10T01:15:05;41.23;;;31.13;;
10260;SDS011;5175;42.606;23.388;2022-11-10T01:17:32;37.87;;;30.77;;
10260;SDS011;5175;42.606;23.388;2022-11-10T01:20:00;40.03;;;30.53;;
10260;SDS011;5175;42.606;23.388;2022-11-10T01:22:27;40.80;;;30.33;;
10260;SDS011;5175;42.606;23.388;2022-11-10T01:24:54;40.47;;;31.30;;
10260;SDS011;5175;42.606;23.388;2022-11-10T01:27:20;36.83;;;30.50;;
10260;SDS011;5175;42.606;23.388;2022-11-10T01:29:47;37.93;;;30.43;;
10260;SDS011;5175;42.606;23.388;2022-11-10T01:32:14;36.93;;;30.00;;
10260;SDS011;5175;42.606;23.388;2022-11-10T01:34:40;38.40;;;28.93;;
10260;SDS011;5175;42.606;23.388;2022-11-10T01:37:10;35.83;;;29.20;;
10260;SDS011;5175;42.606;23.388;2022-11-10T01:39:36;35.13;;;29.23;;
10260;SDS011;5175;42.606;23.388;2022-11-10T01:42:03;36.80;;;28.83;;
10260;SDS011;5175;42.606;23.388;2022-11-10T01:44:30;34.93;;;28.27;;
10260;SDS011;5175;42.606;23.388;2022-11-10T01:46:57;34.13;;;28.33;;
10260;SDS011;5175;42.606;23.388;2022-11-10T01:49:24;34.13;;;28.30;;
10260;SDS011;5175;42.606;23.388;2022-11-10T01:51:57;32.70;;;28.13;;
10260;SDS011;5175;42.606;23.388;2022-11-10T01:54:28;36.60;;;29.13;;
10260;SDS011;5175;42.606;23.388;2022-11-10T01:56:57;33.43;;;27.13;;
10260;SDS011;5175;42.606;23.388;2022-11-10T01:59:29;33.73;;;27.77;;
10260;SDS011;5175;42.606;23.388;2022-11-10T02:02:02;33.10;;;27.40;;
10260;SDS011;5175;42.606;23.388;2022-11-10T02:04:36;34.13;;;27.83;;
10260;SDS011;5175;42.606;23.388;2022-11-10T02:07:05;32.87;;;26.53;;
10260;SDS011;5175;42.606;23.388;2022-11-10T02:09:33;33.17;;;26.73;;
10260;SDS011;5175;42.606;23.388;2022-11-10T02:12:00;31.57;;;26.10;;
10260;SDS011;5175;42.606;23.388;2022-11-10T02:14:27;30.83;;;25.07;;
10260;SDS011;5175;42.606;23.388;2022-11-10T02:16:54;33.77;;;26.53;;
10260;SDS011;5175;42.606;23.388;2022-11-10T02:19:22;29.13;;;25.47;;
10260;SDS011;5175;42.606;23.388;2022-11-10T02:21:51;29.57;;;25.30;;
10260;SDS011;5175;42.606;23.388;2022-11-10T02:24:18;32.27;;;25.93;;
10260;SDS011;5175;42.606;23.388;2022-11-10T02:26:46;32.67;;;27.50;;
10260;SDS011;5175;42.606;23.388;2022-11-10T02:29:15;32.17;;;25.23;;
10260;SDS011;5175;42.606;23.388;2022-11-10T02:31:42;30.27;;;25.20;;
10260;SDS011;5175;42.606;23.388;2022-11-10T02:34:09;27.03;;;23.20;;
10260;SDS011;5175;42.606;23.388;2022-11-10T02:36:36;27.67;;;22.93;;
10260;SDS011;5175;42.606;23.388;2022-11-10T02:39:04;28.60;;;24.57;;
10260;SDS011;5175;42.606;23.388;2022-11-10T02:41:31;29.30;;;24.20;;
10260;SDS011;5175;42.606;23.388;2022-11-10T02:43:58;29.17;;;24.47;;
10260;SDS011;5175;42.606;23.388;2022-11-10T02:46:25;28.20;;;24.43;;
10260;SDS011;5175;42.606;23.388;2022-11-10T02:48:52;28.13;;;24.03;;
10260;SDS011;5175;42.606;23.388;2022-11-10T02:51:18;31.17;;;24.17;;
10260;SDS011;5175;42.606;23.388;2022-11-10T02:53:45;28.50;;;23.63;;
10260;SDS011;5175;42.606;23.388;2022-11-10T02:56:13;25.57;;;22.07;;
10260;SDS011;5175;42.606;23.388;2022-11-10T02:58:40;25.47;;;21.50;;
10260;SDS011;5175;42.606;23.388;2022-11-10T03:01:06;25.47;;;22.50;;
10260;SDS011;5175;42.606;23.388;2022-11-10T03:03:34;27.87;;;23.07;;
10260;SDS011;5175;42.606;23.388;2022-11-10T03:06:00;26.53;;;22.93;;
10260;SDS011;5175;42.606;23.388;2022-11-10T03:08:27;24.97;;;22.07;;
10260;SDS011;5175;42.606;23.388;2022-11-10T03:10:54;25.03;;;22.40;;
10260;SDS011;5175;42.606;23.388;2022-11-10T03:13:23;24.97;;;21.47;;
10260;SDS011;5175;42.606;23.388;2022-11-10T03:15:50;23.00;;;20.40;;
10260;SDS011;5175;42.606;23.388;2022-11-10T03:18:18;22.63;;;20.17;;
10260;SDS011;5175;42.606;23.388;2022-11-10T03:20:45;25.93;;;19.43;;
10260;SDS011;5175;42.606;23.388;2022-11-10T03:23:14;22.07;;;19.73;;
10260;SDS011;5175;42.606;23.388;2022-11-10T03:25:41;23.20;;;19.43;;
10260;SDS011;5175;42.606;23.388;2022-11-10T03:28:08;23.17;;;19.63;;
10260;SDS011;5175;42.606;23.388;2022-11-10T03:30:36;23.40;;;18.97;;
10260;SDS011;5175;42.606;23.388;2022-11-10T03:33:04;25.93;;;19.47;;
10260;SDS011;5175;42.606;23.388;2022-11-10T03:35:31;23.43;;;19.37;;
10260;SDS011;5175;42.606;23.388;2022-11-10T03:37:58;22.63;;;18.07;;
10260;SDS011;5175;42.606;23.388;2022-11-10T03:40:24;21.90;;;19.53;;
10260;SDS011;5175;42.606;23.388;2022-11-10T03:42:51;23.83;;;20.43;;
10260;SDS011;5175;42.606;23.388;2022-11-10T03:45:18;22.97;;;20.13;;
10260;SDS011;5175;42.606;23.388;2022-11-10T03:47:46;25.30;;;21.67;;
10260;SDS011;5175;42.606;23.388;2022-11-10T03:50:14;24.73;;;21.00;;
10260;SDS011;5175;42.606;23.388;2022-11-10T03:52:42;24.13;;;21.50;;
10260;SDS011;5175;42.606;23.388;2022-11-10T03:55:11;25.13;;;21.47;;
10260;SDS011;5175;42.606;23.388;2022-11-10T03:57:39;24.03;;;19.90;;
10260;SDS011;5175;42.606;23.388;2022-11-10T04:00:07;22.20;;;19.47;;
10260;SDS011;5175;42.606;23.388;2022-11-10T04:02:34;22.43;;;18.23;;
10260;SDS011;5175;42.606;23.388;2022-11-10T04:05:03;23.97;;;20.03;;
10260;SDS011;5175;42.606;23.388;2022-11-10T04:07:48;22.60;;;19.07;;
10260;SDS011;5175;42.606;23.388;2022-11-10T04:10:39;24.63;;;19.97;;
10260;SDS011;5175;42.606;23.388;2022-11-10T04:13:05;23.93;;;20.63;;
10260;SDS011;5175;42.606;23.388;2022-11-10T04:15:50;25.30;;;20.47;;
10260;SDS011;5175;42.606;23.388;2022-11-10T04:18:17;21.97;;;19.10;;
10260;SDS011;5175;42.606;23.388;2022-11-10T04:20:50;22.83;;;19.73;;
10260;SDS011;5175;42.606;23.388;2022-11-10T04:23:18;23.37;;;19.97;;
10260;SDS011;5175;42.606;23.388;2022-11-10T04:25:52;22.47;;;18.37;;
10260;SDS011;5175;42.606;23.388;2022-11-10T04:28:41;24.30;;;19.43;;
10260;SDS011;5175;42.606;23.388;2022-11-10T04:31:08;26.67;;;19.70;;
10260;SDS011;5175;42.606;23.388;2022-11-10T04:33:35;21.70;;;18.53;;
10260;SDS011;5175;42.606;23.388;2022-11-10T04:36:05;24.20;;;18.90;;
10260;SDS011;5175;42.606;23.388;2022-11-10T04:38:33;20.93;;;18.37;;
10260;SDS011;5175;42.606;23.388;2022-11-10T04:41:00;20.93;;;17.43;;
10260;SDS011;5175;42.606;23.388;2022-11-10T04:43:26;192.47;;;26.77;;
10260;SDS011;5175;42.606;23.388;2022-11-10T04:45:54;20.50;;;17.93;;
10260;SDS011;5175;42.606;23.388;2022-11-10T04:48:20;18.57;;;16.60;;
10260;SDS011;5175;42.606;23.388;2022-11-10T04:50:48;21.27;;;17.23;;
10260;SDS011;5175;42.606;23.388;2022-11-10T04:53:16;26.00;;;19.37;;
10260;SDS011;5175;42.606;23.388;2022-11-10T04:55:43;22.80;;;19.30;;
10260;SDS011;5175;42.606;23.388;2022-11-10T04:58:11;24.00;;;19.37;;
10260;SDS011;5175;42.606;23.388;2022-11-10T05:00:39;22.17;;;17.77;;
10260;SDS011;5175;42.606;23.388;2022-11-10T05:03:07;25.30;;;18.27;;
10260;SDS011;5175;42.606;23.388;2022-11-10T05:05:35;23.77;;;19.10;;
10260;SDS011;5175;42.606;23.388;2022-11-10T05:08:02;22.87;;;18.47;;
10260;SDS011;5175;42.606;23.388;2022-11-10T05:10:30;23.93;;;18.67;;
10260;SDS011;5175;42.606;23.388;2022-11-10T05:12:57;22.00;;;18.97;;
10260;SDS011;5175;42.606;23.388;2022-11-10T05:15:24;24.70;;;18.57;;
10260;SDS011;5175;42.606;23.388;2022-11-10T05:17:51;20.80;;;18.33;;
10260;SDS011;5175;42.606;23.388;2022-11-10T05:20:20;22.37;;;19.60;;
10260;SDS011;5175;42.606;23.388;2022-11-10T05:22:49;22.33;;;18.67;;
10260;SDS011;5175;42.606;23.388;2022-11-10T05:25:32;26.20;;;18.90;;
10260;SDS011;5175;42.606;23.388;2022-11-10T05:28:00;25.47;;;18.20;;
10260;SDS011;5175;42.606;23.388;2022-11-10T05:30:27;21.60;;;18.10;;
10260;SDS011;5175;42.606;23.388;2022-11-10T05:32:54;23.43;;;19.23;;
10260;SDS011;5175;42.606;23.388;2022-11-10T05:35:20;25.97;;;19.00;;
10260;SDS011;5175;42.606;23.388;2022-11-10T05:37:47;21.37;;;17.73;;
10260;SDS011;5175;42.606;23.388;2022-11-10T05:40:14;23.43;;;18.93;;
10260;SDS011;5175;42.606;23.388;2022-11-10T05:42:43;24.63;;;18.87;;
10260;SDS011;5175;42.606;23.388;2022-11-10T05:45:09;25.43;;;19.10;;
10260;SDS011;5175;42.606;23.388;2022-11-10T05:47:36;22.40;;;17.30;;
10260;SDS011;5175;42.606;23.388;2022-11-10T05:50:04;22.83;;;18.20;;
10260;SDS011;5175;42.606;23.388;2022-11-10T05:52:32;23.43;;;18.37;;
10260;SDS011;5175;42.606;23.388;2022-11-10T05:54:59;21.90;;;17.83;;
10260;SDS011;5175;42.606;23.388;2022-11-10T05:57:26;25.43;;;19.17;;
10260;SDS011;5175;42.606;23.388;2022-11-10T05:59:54;22.47;;;18.37;;
10260;SDS011;5175;42.606;23.388;2022-11-10T06:02:21;22.20;;;18.67;;
10260;SDS011;5175;42.606;23.388;2022-11-10T06:04:48;21.23;;;18.30;;
10260;SDS011;5175;42.606;23.388;2022-11-10T06:07:14;22.57;;;18.37;;
10260;SDS011;5175;42.606;23.388;2022-11-10T06:09:41;20.70;;;18.23;;
10260;SDS011;5175;42.606;23.388;2022-11-10T06:12:08;22.53;;;19.00;;
10260;SDS011;5175;42.606;23.388;2022-11-10T06:14:35;24.63;;;19.43;;
10260;SDS011;5175;42.606;23.388;2022-11-10T06:17:03;24.63;;;21.23;;
10260;SDS011;5175;42.606;23.388;2022-11-10T06:19:29;24.67;;;20.10;;
10260;SDS011;5175;42.606;23.388;2022-11-10T06:21:56;26.57;;;20.27;;
10260;SDS011;5175;42.606;23.388;2022-11-10T06:24:23;26.90;;;22.30;;
10260;SDS011;5175;42.606;23.388;2022-11-10T06:26:50;25.53;;;21.73;;
10260;SDS011;5175;42.606;23.388;2022-11-10T06:29:16;22.87;;;20.43;;
10260;SDS011;5175;42.606;23.388;2022-11-10T06:31:43;24.13;;;20.50;;
10260;SDS011;5175;42.606;23.388;2022-11-10T06:34:11;25.77;;;22.47;;
10260;SDS011;5175;42.606;23.388;2022-11-10T06:36:38;24.03;;;21.37;;
10260;SDS011;5175;42.606;23.388;2022-11-10T06:39:04;25.07;;;22.37;;
10260;SDS011;5175;42.606;23.388;2022-11-10T06:41:32;26.57;;;22.30;;
10260;SDS011;5175;42.606;23.388;2022-11-10T06:43:58;26.10;;;22.37;;
10260;SDS011;5175;42.606;23.388;2022-11-10T06:46:25;26.73;;;22.70;;
10260;SDS011;5175;42.606;23.388;2022-11-10T06:48:52;25.83;;;22.63;;
10260;SDS011;5175;42.606;23.388;2022-11-10T06:51:20;27.23;;;21.80;;
10260;SDS011;5175;42.606;23.388;2022-11-10T06:53:47;27.00;;;23.20;;
10260;SDS011;5175;42.606;23.388;2022-11-10T06:56:14;27.40;;;22.63;;
10260;SDS011;5175;42.606;23.388;2022-11-10T06:58:40;27.43;;;23.40;;
10260;SDS011;5175;42.606;23.388;2022-11-10T07:01:07;26.80;;;22.13;;
10260;SDS011;5175;42.606;23.388;2022-11-10T07:03:34;26.17;;;23.37;;
10260;SDS011;5175;42.606;23.388;2022-11-10T07:06:01;28.07;;;23.30;;
10260;SDS011;5175;42.606;23.388;2022-11-10T07:08:30;27.00;;;23.80;;
10260;SDS011;5175;42.606;23.388;2022-11-10T07:10:57;27.47;;;23.57;;
10260;SDS011;5175;42.606;23.388;2022-11-10T07:13:23;30.03;;;24.33;;
10260;SDS011;5175;42.606;23.388;2022-11-10T07:15:50;29.57;;;24.07;;
10260;SDS011;5175;42.606;23.388;2022-11-10T07:18:17;27.80;;;23.60;;
10260;SDS011;5175;42.606;23.388;2022-11-10T07:20:44;26.17;;;22.23;;
10260;SDS011;5175;42.606;23.388;2022-11-10T07:23:11;24.90;;;22.20;;
10260;SDS011;5175;42.606;23.388;2022-11-10T07:25:39;24.73;;;21.37;;
10260;SDS011;5175;42.606;23.388;2022-11-10T07:28:07;23.87;;;21.27;;
10260;SDS011;5175;42.606;23.388;2022-11-10T07:30:34;25.33;;;22.43;;
10260;SDS011;5175;42.606;23.388;2022-11-10T07:33:02;28.37;;;23.03;;
10260;SDS011;5175;42.606;23.388;2022-11-10T07:35:30;26.93;;;24.03;;
10260;SDS011;5175;42.606;23.388;2022-11-10T07:38:00;27.13;;;23.33;;
10260;SDS011;5175;42.606;23.388;2022-11-10T07:40:28;25.17;;;22.43;;
10260;SDS011;5175;42.606;23.388;2022-11-10T07:42:57;25.77;;;22.67;;
10260;SDS011;5175;42.606;23.388;2022-11-10T07:45:23;24.93;;;22.23;;
10260;SDS011;5175;42.606;23.388;2022-11-10T07:47:50;23.27;;;20.77;;
10260;SDS011;5175;42.606;23.388;2022-11-10T07:50:17;25.80;;;21.87;;
10260;SDS011;5175;42.606;23.388;2022-11-10T07:52:44;22.50;;;20.20;;
10260;SDS011;5175;42.606;23.388;2022-11-10T07:55:11;23.20;;;20.73;;
10260;SDS011;5175;42.606;23.388;2022-11-10T07:57:38;24.53;;;21.10;;
10260;SDS011;5175;42.606;23.388;2022-11-10T08:00:06;24.27;;;21.77;;
10260;SDS011;5175;42.606;23.388;2022-11-10T08:02:36;23.27;;;20.87;;
10260;SDS011;5175;42.606;23.388;2022-11-10T08:05:03;24.40;;;21.03;;
10260;SDS011;5175;42.606;23.388;2022-11-10T08:07:31;25.20;;;22.47;;
10260;SDS011;5175;42.606;23.388;2022-11-10T08:09:57;25.43;;;21.93;;
10260;SDS011;5175;42.606;23.388;2022-11-10T08:12:24;23.50;;;20.97;;
10260;SDS011;5175;42.606;23.388;2022-11-10T08:14:51;23.33;;;20.83;;
10260;SDS011;5175;42.606;23.388;2022-11-10T08:17:19;22.90;;;20.50;;
10260;SDS011;5175;42.606;23.388;2022-11-10T08:19:45;24.40;;;21.83;;
10260;SDS011;5175;42.606;23.388;2022-11-10T08:22:12;23.90;;;21.40;;
10260;SDS011;5175;42.606;23.388;2022-11-10T08:24:39;26.23;;;21.07;;
10260;SDS011;5175;42.606;23.388;2022-11-10T08:27:06;26.53;;;22.37;;
10260;SDS011;5175;42.606;23.388;2022-11-10T08:29:33;25.13;;;22.10;;
10260;SDS011;5175;42.606;23.388;2022-11-10T08:31:59;25.77;;;21.17;;
10260;SDS011;5175;42.606;23.388;2022-11-10T08:34:28;24.17;;;21.67;;
10260;SDS011;5175;42.606;23.388;2022-11-10T08:36:54;23.07;;;20.67;;
10260;SDS011;5175;42.606;23.388;2022-11-10T08:39:21;23.87;;;21.33;;
10260;SDS011;5175;42.606;23.388;2022-11-10T08:41:48;24.33;;;21.80;;
10260;SDS011;5175;42.606;23.388;2022-11-10T08:44:14;27.10;;;23.63;;
10260;SDS011;5175;42.606;23.388;2022-11-10T08:46:41;28.47;;;25.43;;
10260;SDS011;5175;42.606;23.388;2022-11-10T08:49:09;28.73;;;24.90;;
10260;SDS011;5175;42.606;23.388;2022-11-10T08:51:37;29.13;;;25.13;;
10260;SDS011;5175;42.606;23.388;2022-11-10T08:54:03;31.97;;;26.40;;
10260;SDS011;5175;42.606;23.388;2022-11-10T08:56:30;33.17;;;27.20;;
10260;SDS011;5175;42.606;23.388;2022-11-10T08:58:57;36.80;;;29.67;;
10260;SDS011;5175;42.606;23.388;2022-11-10T09:01:24;37.97;;;31.20;;
10260;SDS011;5175;42.606;23.388;2022-11-10T09:03:50;39.23;;;32.13;;
10260;SDS011;5175;42.606;23.388;2022-11-10T09:06:17;36.57;;;32.00;;
10260;SDS011;5175;42.606;23.388;2022-11-10T09:08:45;35.37;;;31.00;;
10260;SDS011;5175;42.606;23.388;2022-11-10T09:11:12;41.07;;;31.43;;
10260;SDS011;5175;42.606;23.388;2022-11-10T09:13:39;41.57;;;33.10;;
10260;SDS011;5175;42.606;23.388;2022-11-10T09:16:07;41.90;;;34.07;;
10260;SDS011;5175;42.606;23.388;2022-11-10T09:18:34;39.37;;;32.97;;
10260;SDS011;5175;42.606;23.388;2022-11-10T09:21:01;42.03;;;33.93;;
10260;SDS011;5175;42.606;23.388;2022-11-10T09:23:28;42.23;;;34.50;;
10260;SDS011;5175;42.606;23.388;2022-11-10T09:25:56;38.13;;;32.97;;
10260;SDS011;5175;42.606;23.388;2022-11-10T09:28:23;44.97;;;35.87;;
10260;SDS011;5175;42.606;23.388;2022-11-10T09:30:50;50.57;;;37.37;;
10260;SDS011;5175;42.606;23.388;2022-11-10T09:33:18;41.93;;;35.93;;
10260;SDS011;5175;42.606;23.388;2022-11-10T09:35:45;46.83;;;37.87;;
10260;SDS011;5175;42.606;23.388;2022-11-10T09:38:12;51.80;;;42.10;;
10260;SDS011;5175;42.606;23.388;2022-11-10T09:40:43;57.33;;;43.50;;
10260;SDS011;5175;42.606;23.388;2022-11-10T09:43:20;53.20;;;41.53;;
10260;SDS011;5175;42.606;23.388;2022-11-10T09:45:52;56.23;;;42.03;;
10260;SDS011;5175;42.606;23.388;2022-11-10T09:48:24;57.37;;;43.20;;
10260;SDS011;5175;42.606;23.388;2022-11-10T09:50:56;52.30;;;40.23;;
10260;SDS011;5175;42.606;23.388;2022-11-10T09:53:27;52.20;;;40.30;;
10260;SDS011;5175;42.606;23.388;2022-11-10T09:56:01;51.97;;;42.63;;
10260;SDS011;5175;42.606;23.388;2022-11-10T09:58:34;51.03;;;42.73;;
10260;SDS011;5175;42.606;23.388;2022-11-10T10:01:10;56.07;;;43.23;;
10260;SDS011;5175;42.606;23.388;2022-11-10T10:03:51;55.07;;;42.90;;
10260;SDS011;5175;42.606;23.388;2022-11-10T10:06:26;58.33;;;44.73;;
10260;SDS011;5175;42.606;23.388;2022-11-10T10:08:57;55.10;;;44.70;;
10260;SDS011;5175;42.606;23.388;2022-11-10T10:11:33;53.63;;;45.30;;
10260;SDS011;5175;42.606;23.388;2022-11-10T10:14:15;53.57;;;46.47;;
10260;SDS011;5175;42.606;23.388;2022-11-10T10:16:50;59.00;;;46.10;;
10260;SDS011;5175;42.606;23.388;2022-11-10T10:19:25;55.30;;;45.53;;
10260;SDS011;5175;42.606;23.388;2022-11-10T10:22:06;58.10;;;47.17;;
10260;SDS011;5175;42.606;23.388;2022-11-10T10:24:49;55.20;;;46.67;;
10260;SDS011;5175;42.606;23.388;2022-11-10T10:27:19;63.07;;;49.50;;
10260;SDS011;5175;42.606;23.388;2022-11-10T10:29:49;60.40;;;50.60;;
10260;SDS011;5175;42.606;23.388;2022-11-10T10:32:16;58.13;;;48.67;;
10260;SDS011;5175;42.606;23.388;2022-11-10T10:34:44;60.43;;;50.10;;
10260;SDS011;5175;42.606;23.388;2022-11-10T10:39:50;62.93;;;50.57;;
10260;SDS011;5175;42.606;23.388;2022-11-10T10:42:24;64.70;;;50.70;;
10260;SDS011;5175;42.606;23.388;2022-11-10T10:45:12;63.07;;;50.57;;
10260;SDS011;5175;42.606;23.388;2022-11-10T10:47:40;62.57;;;50.27;;
10260;SDS011;5175;42.606;23.388;2022-11-10T10:50:26;61.57;;;49.43;;
10260;SDS011;5175;42.606;23.388;2022-11-10T10:53:06;62.87;;;48.73;;
10260;SDS011;5175;42.606;23.388;2022-11-10T10:55:37;58.00;;;47.37;;
10260;SDS011;5175;42.606;23.388;2022-11-10T10:58:08;66.90;;;50.20;;
10260;SDS011;5175;42.606;23.388;2022-11-10T11:00:46;61.27;;;49.97;;
10260;SDS011;5175;42.606;23.388;2022-11-10T11:03:18;59.60;;;48.63;;
10260;SDS011;5175;42.606;23.388;2022-11-10T11:06:01;58.87;;;47.47;;
10260;SDS011;5175;42.606;23.388;2022-11-10T11:08:31;62.13;;;48.57;;
10260;SDS011;5175;42.606;23.388;2022-11-10T11:11:05;58.07;;;48.53;;
10260;SDS011;5175;42.606;23.388;2022-11-10T11:13:33;61.43;;;49.33;;
10260;SDS011;5175;42.606;23.388;2022-11-10T11:16:02;60.90;;;49.47;;
10260;SDS011;5175;42.606;23.388;2022-11-10T11:18:31;59.43;;;48.37;;
10260;SDS011;5175;42.606;23.388;2022-11-10T11:21:00;61.43;;;49.70;;
10260;SDS011;5175;42.606;23.388;2022-11-10T11:23:39;59.97;;;50.20;;
10260;SDS011;5175;42.606;23.388;2022-11-10T11:26:19;59.27;;;49.73;;
10260;SDS011;5175;42.606;23.388;2022-11-10T11:28:52;58.90;;;49.30;;
10260;SDS011;5175;42.606;23.388;2022-11-10T11:31:31;59.93;;;48.53;;
10260;SDS011;5175;42.606;23.388;2022-11-10T11:34:11;66.77;;;51.40;;
10260;SDS011;5175;42.606;23.388;2022-11-10T11:36:44;57.77;;;49.60;;
10260;SDS011;5175;42.606;23.388;2022-11-10T11:39:21;58.73;;;48.27;;
10260;SDS011;5175;42.606;23.388;2022-11-10T11:41:59;62.43;;;49.40;;
10260;SDS011;5175;42.606;23.388;2022-11-10T11:44:40;57.73;;;48.87;;
10260;SDS011;5175;42.606;23.388;2022-11-10T11:47:24;58.13;;;48.73;;
10260;SDS011;5175;42.606;23.388;2022-11-10T11:52:54;56.77;;;46.50;;
10260;SDS011;5175;42.606;23.388;2022-11-10T11:55:32;58.33;;;47.87;;
10260;SDS011;5175;42.606;23.388;2022-11-10T12:01:10;55.67;;;46.50;;
10260;SDS011;5175;42.606;23.388;2022-11-10T12:06:56;56.60;;;47.57;;
10260;SDS011;5175;42.606;23.388;2022-11-10T12:09:32;57.80;;;46.63;;
10260;SDS011;5175;42.606;23.388;2022-11-10T12:12:09;60.13;;;48.77;;
10260;SDS011;5175;42.606;23.388;2022-11-10T12:14:48;58.10;;;46.90;;
10260;SDS011;5175;42.606;23.388;2022-11-10T12:17:38;55.67;;;45.70;;
10260;SDS011;5175;42.606;23.388;2022-11-10T12:20:13;56.07;;;46.57;;
10260;SDS011;5175;42.606;23.388;2022-11-10T12:22:53;56.80;;;46.13;;
10260;SDS011;5175;42.606;23.388;2022-11-10T12:25:28;56.15;;;44.95;;
10260;SDS011;5175;42.606;23.388;2022-11-10T12:28:02;55.20;;;46.13;;
10260;SDS011;5175;42.606;23.388;2022-11-10T12:30:35;54.63;;;44.80;;
10260;SDS011;5175;42.606;23.388;2022-11-10T12:33:07;61.73;;;46.80;;
10260;SDS011;5175;42.606;23.388;2022-11-10T12:35:42;55.67;;;46.67;;
10260;SDS011;5175;42.606;23.388;2022-11-10T12:38:15;55.03;;;44.80;;
10260;SDS011;5175;42.606;23.388;2022-11-10T12:40:46;53.03;;;44.50;;
10260;SDS011;5175;42.606;23.388;2022-11-10T12:43:16;51.80;;;43.78;;
10260;SDS011;5175;42.606;23.388;2022-11-10T12:45:52;54.67;;;44.30;;
10260;SDS011;5175;42.606;23.388;2022-11-10T12:48:22;54.38;;;45.75;;
10260;SDS011;5175;42.606;23.388;2022-11-10T12:50:52;50.30;;;44.72;;
10260;SDS011;5175;42.606;23.388;2022-11-10T12:53:28;50.83;;;42.75;;
10260;SDS011;5175;42.606;23.388;2022-11-10T12:56:00;53.15;;;44.00;;
10260;SDS011;5175;42.606;23.388;2022-11-10T12:58:33;51.30;;;43.45;;
10260;SDS011;5175;42.606;23.388;2022-11-10T13:01:02;53.45;;;44.05;;
10260;SDS011;5175;42.606;23.388;2022-11-10T13:03:31;49.65;;;42.30;;
10260;SDS011;5175;42.606;23.388;2022-11-10T13:06:02;52.50;;;42.63;;
10260;SDS011;5175;42.606;23.388;2022-11-10T13:08:36;51.50;;;42.63;;
10260;SDS011;5175;42.606;23.388;2022-11-10T13:13:56;48.00;;;41.25;;
10260;SDS011;5175;42.606;23.388;2022-11-10T13:22:29;49.05;;;42.10;;
10260;SDS011;5175;42.606;23.388;2022-11-10T13:28:18;49.95;;;41.88;;
10260;SDS011;5175;42.606;23.388;2022-11-10T13:31:38;45.88;;;40.80;;
10260;SDS011;5175;42.606;23.388;2022-11-10T13:34:26;46.40;;;40.47;;
10260;SDS011;5175;42.606;23.388;2022-11-10T13:36:55;46.53;;;39.58;;
10260;SDS011;5175;42.606;23.388;2022-11-10T13:39:23;46.60;;;39.50;;
10260;SDS011;5175;42.606;23.388;2022-11-10T13:41:55;52.75;;;41.38;;
10260;SDS011;5175;42.606;23.388;2022-11-10T13:44:28;47.28;;;39.67;;
10260;SDS011;5175;42.606;23.388;2022-11-10T13:47:11;45.58;;;39.85;;
10260;SDS011;5175;42.606;23.388;2022-11-10T13:50:02;48.30;;;38.97;;
10260;SDS011;5175;42.606;23.388;2022-11-10T13:52:43;53.75;;;41.55;;
10260;SDS011;5175;42.606;23.388;2022-11-10T13:55:26;50.80;;;41.25;;
10260;SDS011;5175;42.606;23.388;2022-11-10T13:58:04;45.40;;;40.40;;
10260;SDS011;5175;42.606;23.388;2022-11-10T14:00:34;50.88;;;41.50;;
10260;SDS011;5175;42.606;23.388;2022-11-10T14:03:02;48.08;;;41.60;;
10260;SDS011;5175;42.606;23.388;2022-11-10T14:08:40;48.17;;;40.05;;
10260;SDS011;5175;42.606;23.388;2022-11-10T14:11:14;49.95;;;41.55;;
10260;SDS011;5175;42.606;23.388;2022-11-10T14:13:48;52.35;;;37.85;;
10260;SDS011;5175;42.606;23.388;2022-11-10T14:16:18;49.95;;;37.58;;
10260;SDS011;5175;42.606;23.388;2022-11-10T14:18:50;56.15;;;37.85;;
10260;SDS011;5175;42.606;23.388;2022-11-10T14:24:11;57.35;;;37.40;;
10260;SDS011;5175;42.606;23.388;2022-11-10T14:26:45;50.83;;;37.33;;
10260;SDS011;5175;42.606;23.388;2022-11-10T14:32:04;49.93;;;37.10;;
10260;SDS011;5175;42.606;23.388;2022-11-10T14:34:42;58.70;;;38.53;;
10260;SDS011;5175;42.606;23.388;2022-11-10T14:37:13;56.53;;;39.47;;
10260;SDS011;5175;42.606;23.388;2022-11-10T14:39:43;56.20;;;38.37;;
10260;SDS011;5175;42.606;23.388;2022-11-10T14:42:12;53.73;;;37.13;;
10260;SDS011;5175;42.606;23.388;2022-11-10T14:44:42;51.33;;;37.03;;
10260;SDS011;5175;42.606;23.388;2022-11-10T14:47:13;56.07;;;36.67;;
10260;SDS011;5175;42.606;23.388;2022-11-10T14:49:41;52.53;;;36.90;;
10260;SDS011;5175;42.606;23.388;2022-11-10T14:52:09;50.90;;;36.97;;
10260;SDS011;5175;42.606;23.388;2022-11-10T14:54:42;56.03;;;35.50;;
10260;SDS011;5175;42.606;23.388;2022-11-10T14:57:14;38.23;;;26.97;;
10260;SDS011;5175;42.606;23.388;2022-11-10T14:59:45;36.80;;;25.87;;
10260;SDS011;5175;42.606;23.388;2022-11-10T15:02:13;35.23;;;25.93;;
10260;SDS011;5175;42.606;23.388;2022-11-10T15:04:42;37.83;;;25.53;;
10260;SDS011;5175;42.606;23.388;2022-11-10T15:07:09;26.77;;;19.37;;
10260;SDS011;5175;42.606;23.388;2022-11-10T15:09:36;30.80;;;20.17;;